sensor_id;sensor_type;location;lat;lon;timestamp;P1;durP1;ratioP1;P2;durP2;ratioP2
73321;SDS011;61549;37.044;22.128;2022-12-20T00:00:49;3.72;;;2.05;;
73321;SDS011;61549;37.044;22.128;2022-12-20T00:03:16;4.22;;;2.35;;
73321;SDS011;61549;37.044;22.128;2022-12-20T00:05:42;3.30;;;2.30;;
73321;SDS011;61549;37.044;22.128;2022-12-20T00:08:26;4.82;;;2.20;;
73321;SDS011;61549;37.044;22.128;2022-12-20T00:10:52;4.28;;;2.30;;
73321;SDS011;61549;37.044;22.128;2022-12-20T00:13:18;3.00;;;2.03;;
73321;SDS011;61549;37.044;22.128;2022-12-20T00:15:44;3.67;;;2.60;;
73321;SDS011;61549;37.044;22.128;2022-12-20T00:18:10;4.70;;;2.03;;
73321;SDS011;61549;37.044;22.128;2022-12-20T00:20:36;4.28;;;2.05;;
73321;SDS011;61549;37.044;22.128;2022-12-20T00:23:02;3.33;;;2.17;;
73321;SDS011;61549;37.044;22.128;2022-12-20T00:25:28;4.25;;;2.30;;
73321;SDS011;61549;37.044;22.128;2022-12-20T00:27:54;2.70;;;1.90;;
73321;SDS011;61549;37.044;22.128;2022-12-20T00:30:20;2.92;;;1.95;;
73321;SDS011;61549;37.044;22.128;2022-12-20T00:32:45;2.97;;;1.83;;
73321;SDS011;61549;37.044;22.128;2022-12-20T00:35:11;3.35;;;1.83;;
73321;SDS011;61549;37.044;22.128;2022-12-20T00:37:38;3.55;;;1.95;;
73321;SDS011;61549;37.044;22.128;2022-12-20T00:40:04;4.47;;;2.00;;
73321;SDS011;61549;37.044;22.128;2022-12-20T00:42:31;2.40;;;1.83;;
73321;SDS011;61549;37.044;22.128;2022-12-20T00:44:57;3.88;;;2.10;;
73321;SDS011;61549;37.044;22.128;2022-12-20T00:47:23;3.55;;;1.80;;
73321;SDS011;61549;37.044;22.128;2022-12-20T00:49:49;5.93;;;2.05;;
73321;SDS011;61549;37.044;22.128;2022-12-20T00:52:15;3.50;;;2.03;;
73321;SDS011;61549;37.044;22.128;2022-12-20T00:54:40;3.20;;;2.13;;
73321;SDS011;61549;37.044;22.128;2022-12-20T00:57:07;4.03;;;1.83;;
73321;SDS011;61549;37.044;22.128;2022-12-20T00:59:33;2.65;;;1.88;;
73321;SDS011;61549;37.044;22.128;2022-12-20T01:01:59;3.10;;;1.90;;
73321;SDS011;61549;37.044;22.128;2022-12-20T01:04:25;2.55;;;1.60;;
73321;SDS011;61549;37.044;22.128;2022-12-20T01:06:51;3.22;;;1.80;;
73321;SDS011;61549;37.044;22.128;2022-12-20T01:09:17;3.05;;;1.90;;
73321;SDS011;61549;37.044;22.128;2022-12-20T01:11:43;2.47;;;1.60;;
73321;SDS011;61549;37.044;22.128;2022-12-20T01:14:12;2.97;;;1.60;;
73321;SDS011;61549;37.044;22.128;2022-12-20T01:16:40;3.65;;;1.80;;
73321;SDS011;61549;37.044;22.128;2022-12-20T01:19:10;3.53;;;1.60;;
73321;SDS011;61549;37.044;22.128;2022-12-20T01:21:38;3.13;;;1.70;;
73321;SDS011;61549;37.044;22.128;2022-12-20T01:24:17;3.78;;;1.70;;
73321;SDS011;61549;37.044;22.128;2022-12-20T01:26:44;2.80;;;1.50;;
73321;SDS011;61549;37.044;22.128;2022-12-20T01:29:11;3.63;;;1.67;;
73321;SDS011;61549;37.044;22.128;2022-12-20T01:31:38;2.42;;;1.40;;
73321;SDS011;61549;37.044;22.128;2022-12-20T01:34:04;2.70;;;1.40;;
73321;SDS011;61549;37.044;22.128;2022-12-20T01:36:31;3.08;;;1.80;;
73321;SDS011;61549;37.044;22.128;2022-12-20T01:38:59;3.88;;;1.45;;
73321;SDS011;61549;37.044;22.128;2022-12-20T01:41:27;2.50;;;1.70;;
73321;SDS011;61549;37.044;22.128;2022-12-20T01:43:56;2.88;;;1.77;;
73321;SDS011;61549;37.044;22.128;2022-12-20T01:46:25;2.95;;;1.60;;
73321;SDS011;61549;37.044;22.128;2022-12-20T01:48:55;4.55;;;1.40;;
73321;SDS011;61549;37.044;22.128;2022-12-20T01:51:21;2.67;;;1.55;;
73321;SDS011;61549;37.044;22.128;2022-12-20T01:53:49;3.53;;;1.52;;
73321;SDS011;61549;37.044;22.128;2022-12-20T01:56:22;2.50;;;1.50;;
73321;SDS011;61549;37.044;22.128;2022-12-20T01:58:49;2.42;;;1.50;;
73321;SDS011;61549;37.044;22.128;2022-12-20T02:01:17;3.15;;;1.60;;
73321;SDS011;61549;37.044;22.128;2022-12-20T02:03:43;4.05;;;1.75;;
73321;SDS011;61549;37.044;22.128;2022-12-20T02:06:13;2.55;;;1.60;;
73321;SDS011;61549;37.044;22.128;2022-12-20T02:08:41;4.10;;;1.42;;
73321;SDS011;61549;37.044;22.128;2022-12-20T02:16:39;2.80;;;1.50;;
73321;SDS011;61549;37.044;22.128;2022-12-20T02:25:22;3.45;;;1.67;;
73321;SDS011;61549;37.044;22.128;2022-12-20T02:30:48;2.63;;;1.48;;
73321;SDS011;61549;37.044;22.128;2022-12-20T02:33:20;4.70;;;1.80;;
73321;SDS011;61549;37.044;22.128;2022-12-20T02:35:49;6.00;;;1.75;;
73321;SDS011;61549;37.044;22.128;2022-12-20T02:38:31;4.05;;;1.60;;
73321;SDS011;61549;37.044;22.128;2022-12-20T02:41:10;2.83;;;1.70;;
73321;SDS011;61549;37.044;22.128;2022-12-20T02:43:44;3.88;;;1.75;;
73321;SDS011;61549;37.044;22.128;2022-12-20T02:46:32;3.17;;;1.73;;
73321;SDS011;61549;37.044;22.128;2022-12-20T02:49:04;2.88;;;1.55;;
73321;SDS011;61549;37.044;22.128;2022-12-20T02:51:36;3.13;;;1.60;;
73321;SDS011;61549;37.044;22.128;2022-12-20T02:54:04;3.08;;;1.65;;
73321;SDS011;61549;37.044;22.128;2022-12-20T02:59:06;3.17;;;1.70;;
73321;SDS011;61549;37.044;22.128;2022-12-20T03:04:34;5.07;;;1.67;;
73321;SDS011;61549;37.044;22.128;2022-12-20T03:07:06;2.38;;;1.50;;
73321;SDS011;61549;37.044;22.128;2022-12-20T03:09:36;3.63;;;1.60;;
73321;SDS011;61549;37.044;22.128;2022-12-20T03:12:04;3.55;;;1.50;;
73321;SDS011;61549;37.044;22.128;2022-12-20T03:14:33;3.55;;;1.25;;
73321;SDS011;61549;37.044;22.128;2022-12-20T03:16:59;2.25;;;1.20;;
73321;SDS011;61549;37.044;22.128;2022-12-20T03:19:29;3.35;;;1.40;;
73321;SDS011;61549;37.044;22.128;2022-12-20T03:21:55;2.85;;;1.50;;
73321;SDS011;61549;37.044;22.128;2022-12-20T03:24:22;2.60;;;1.40;;
73321;SDS011;61549;37.044;22.128;2022-12-20T03:26:48;4.38;;;1.40;;
73321;SDS011;61549;37.044;22.128;2022-12-20T03:29:14;3.30;;;1.50;;
73321;SDS011;61549;37.044;22.128;2022-12-20T03:31:39;2.80;;;1.50;;
73321;SDS011;61549;37.044;22.128;2022-12-20T03:34:05;2.30;;;1.30;;
73321;SDS011;61549;37.044;22.128;2022-12-20T03:36:31;2.80;;;1.40;;
73321;SDS011;61549;37.044;22.128;2022-12-20T03:38:57;3.20;;;1.10;;
73321;SDS011;61549;37.044;22.128;2022-12-20T03:41:23;2.90;;;1.40;;
73321;SDS011;61549;37.044;22.128;2022-12-20T03:43:50;3.38;;;1.50;;
73321;SDS011;61549;37.044;22.128;2022-12-20T03:46:16;2.70;;;1.30;;
73321;SDS011;61549;37.044;22.128;2022-12-20T03:48:43;3.15;;;1.23;;
73321;SDS011;61549;37.044;22.128;2022-12-20T03:51:09;2.85;;;1.20;;
73321;SDS011;61549;37.044;22.128;2022-12-20T03:53:35;3.75;;;1.40;;
73321;SDS011;61549;37.044;22.128;2022-12-20T03:56:01;3.63;;;1.40;;
73321;SDS011;61549;37.044;22.128;2022-12-20T03:58:29;1.85;;;1.30;;
73321;SDS011;61549;37.044;22.128;2022-12-20T04:00:55;2.70;;;1.40;;
73321;SDS011;61549;37.044;22.128;2022-12-20T04:03:22;2.63;;;1.40;;
73321;SDS011;61549;37.044;22.128;2022-12-20T04:05:47;2.38;;;1.40;;
73321;SDS011;61549;37.044;22.128;2022-12-20T04:08:13;2.30;;;1.30;;
73321;SDS011;61549;37.044;22.128;2022-12-20T04:10:39;2.38;;;1.30;;
73321;SDS011;61549;37.044;22.128;2022-12-20T04:13:23;2.25;;;1.40;;
73321;SDS011;61549;37.044;22.128;2022-12-20T04:15:49;3.20;;;1.23;;
73321;SDS011;61549;37.044;22.128;2022-12-20T04:18:15;2.15;;;1.30;;
73321;SDS011;61549;37.044;22.128;2022-12-20T04:20:41;2.92;;;1.40;;
73321;SDS011;61549;37.044;22.128;2022-12-20T04:23:07;2.17;;;1.40;;
73321;SDS011;61549;37.044;22.128;2022-12-20T04:25:32;3.50;;;1.40;;
73321;SDS011;61549;37.044;22.128;2022-12-20T04:27:58;2.50;;;1.50;;
73321;SDS011;61549;37.044;22.128;2022-12-20T04:30:24;2.78;;;1.50;;
73321;SDS011;61549;37.044;22.128;2022-12-20T04:32:50;2.63;;;1.30;;
73321;SDS011;61549;37.044;22.128;2022-12-20T04:35:19;1.88;;;1.20;;
73321;SDS011;61549;37.044;22.128;2022-12-20T04:37:45;2.03;;;1.20;;
73321;SDS011;61549;37.044;22.128;2022-12-20T04:40:11;2.58;;;1.30;;
73321;SDS011;61549;37.044;22.128;2022-12-20T04:42:37;2.72;;;1.35;;
73321;SDS011;61549;37.044;22.128;2022-12-20T04:45:03;2.67;;;1.20;;
73321;SDS011;61549;37.044;22.128;2022-12-20T04:47:29;2.42;;;1.30;;
73321;SDS011;61549;37.044;22.128;2022-12-20T04:49:55;3.55;;;1.30;;
73321;SDS011;61549;37.044;22.128;2022-12-20T04:52:21;2.60;;;1.33;;
73321;SDS011;61549;37.044;22.128;2022-12-20T04:55:05;2.00;;;1.20;;
73321;SDS011;61549;37.044;22.128;2022-12-20T04:57:32;3.08;;;1.40;;
73321;SDS011;61549;37.044;22.128;2022-12-20T04:59:57;2.38;;;1.20;;
73321;SDS011;61549;37.044;22.128;2022-12-20T05:02:23;2.78;;;1.50;;
73321;SDS011;61549;37.044;22.128;2022-12-20T05:04:49;2.38;;;1.20;;
73321;SDS011;61549;37.044;22.128;2022-12-20T05:07:15;2.70;;;1.20;;
73321;SDS011;61549;37.044;22.128;2022-12-20T05:09:41;3.88;;;1.38;;
73321;SDS011;61549;37.044;22.128;2022-12-20T05:12:07;2.30;;;1.30;;
73321;SDS011;61549;37.044;22.128;2022-12-20T05:14:32;1.92;;;1.10;;
73321;SDS011;61549;37.044;22.128;2022-12-20T05:16:58;2.75;;;1.45;;
73321;SDS011;61549;37.044;22.128;2022-12-20T05:19:24;4.10;;;2.40;;
73321;SDS011;61549;37.044;22.128;2022-12-20T05:21:50;2.20;;;1.30;;
73321;SDS011;61549;37.044;22.128;2022-12-20T05:24:34;2.03;;;1.08;;
73321;SDS011;61549;37.044;22.128;2022-12-20T05:27:19;1.73;;;1.10;;
73321;SDS011;61549;37.044;22.128;2022-12-20T05:29:44;2.60;;;1.13;;
73321;SDS011;61549;37.044;22.128;2022-12-20T05:32:10;2.13;;;1.20;;
73321;SDS011;61549;37.044;22.128;2022-12-20T05:34:36;2.05;;;1.15;;
73321;SDS011;61549;37.044;22.128;2022-12-20T05:37:02;3.67;;;1.50;;
73321;SDS011;61549;37.044;22.128;2022-12-20T05:39:29;2.53;;;1.60;;
73321;SDS011;61549;37.044;22.128;2022-12-20T05:41:55;3.85;;;1.73;;
73321;SDS011;61549;37.044;22.128;2022-12-20T05:44:21;2.30;;;1.30;;
73321;SDS011;61549;37.044;22.128;2022-12-20T05:46:47;1.55;;;1.13;;
73321;SDS011;61549;37.044;22.128;2022-12-20T05:49:14;2.28;;;1.38;;
73321;SDS011;61549;37.044;22.128;2022-12-20T05:51:40;3.08;;;1.40;;
73321;SDS011;61549;37.044;22.128;2022-12-20T05:54:05;3.53;;;1.17;;
73321;SDS011;61549;37.044;22.128;2022-12-20T05:56:31;2.78;;;1.23;;
73321;SDS011;61549;37.044;22.128;2022-12-20T05:58:57;2.30;;;1.40;;
73321;SDS011;61549;37.044;22.128;2022-12-20T06:01:24;2.10;;;1.00;;
73321;SDS011;61549;37.044;22.128;2022-12-20T06:03:49;2.08;;;1.20;;
73321;SDS011;61549;37.044;22.128;2022-12-20T06:06:16;3.58;;;1.40;;
73321;SDS011;61549;37.044;22.128;2022-12-20T06:08:42;1.95;;;1.30;;
73321;SDS011;61549;37.044;22.128;2022-12-20T06:11:08;3.25;;;1.27;;
73321;SDS011;61549;37.044;22.128;2022-12-20T06:13:34;3.00;;;1.70;;
73321;SDS011;61549;37.044;22.128;2022-12-20T06:16:00;2.70;;;1.60;;
73321;SDS011;61549;37.044;22.128;2022-12-20T06:18:26;2.28;;;1.40;;
73321;SDS011;61549;37.044;22.128;2022-12-20T06:20:52;2.83;;;1.40;;
73321;SDS011;61549;37.044;22.128;2022-12-20T06:23:18;2.33;;;1.48;;
73321;SDS011;61549;37.044;22.128;2022-12-20T06:25:44;2.53;;;1.40;;
73321;SDS011;61549;37.044;22.128;2022-12-20T06:28:11;2.83;;;1.60;;
73321;SDS011;61549;37.044;22.128;2022-12-20T06:30:37;2.80;;;1.30;;
73321;SDS011;61549;37.044;22.128;2022-12-20T06:33:03;2.53;;;1.20;;
73321;SDS011;61549;37.044;22.128;2022-12-20T06:35:29;3.53;;;1.60;;
73321;SDS011;61549;37.044;22.128;2022-12-20T06:37:55;2.25;;;1.40;;
73321;SDS011;61549;37.044;22.128;2022-12-20T06:40:21;2.45;;;1.30;;
73321;SDS011;61549;37.044;22.128;2022-12-20T06:42:47;1.70;;;1.30;;
73321;SDS011;61549;37.044;22.128;2022-12-20T06:45:14;2.20;;;1.50;;
73321;SDS011;61549;37.044;22.128;2022-12-20T06:47:41;3.10;;;1.30;;
73321;SDS011;61549;37.044;22.128;2022-12-20T06:50:07;2.70;;;1.38;;
73321;SDS011;61549;37.044;22.128;2022-12-20T06:52:33;2.83;;;1.40;;
73321;SDS011;61549;37.044;22.128;2022-12-20T06:54:59;1.85;;;1.35;;
73321;SDS011;61549;37.044;22.128;2022-12-20T06:57:25;2.90;;;1.38;;
73321;SDS011;61549;37.044;22.128;2022-12-20T06:59:51;2.63;;;1.45;;
73321;SDS011;61549;37.044;22.128;2022-12-20T07:02:17;2.85;;;1.48;;
73321;SDS011;61549;37.044;22.128;2022-12-20T07:04:43;2.95;;;1.60;;
73321;SDS011;61549;37.044;22.128;2022-12-20T07:07:10;2.45;;;1.40;;
73321;SDS011;61549;37.044;22.128;2022-12-20T07:09:37;3.53;;;1.40;;
73321;SDS011;61549;37.044;22.128;2022-12-20T07:12:05;4.43;;;1.60;;
73321;SDS011;61549;37.044;22.128;2022-12-20T07:14:32;3.00;;;1.63;;
73321;SDS011;61549;37.044;22.128;2022-12-20T07:16:58;4.38;;;1.80;;
73321;SDS011;61549;37.044;22.128;2022-12-20T07:19:24;3.38;;;1.60;;
73321;SDS011;61549;37.044;22.128;2022-12-20T07:21:51;3.55;;;1.50;;
73321;SDS011;61549;37.044;22.128;2022-12-20T07:24:18;2.05;;;1.55;;
73321;SDS011;61549;37.044;22.128;2022-12-20T07:26:44;4.35;;;1.50;;
73321;SDS011;61549;37.044;22.128;2022-12-20T07:29:11;3.83;;;1.38;;
73321;SDS011;61549;37.044;22.128;2022-12-20T07:31:37;3.22;;;1.55;;
73321;SDS011;61549;37.044;22.128;2022-12-20T07:34:03;2.40;;;1.60;;
73321;SDS011;61549;37.044;22.128;2022-12-20T07:36:29;2.55;;;1.30;;
73321;SDS011;61549;37.044;22.128;2022-12-20T07:38:55;2.33;;;1.50;;
73321;SDS011;61549;37.044;22.128;2022-12-20T07:41:22;3.05;;;1.50;;
73321;SDS011;61549;37.044;22.128;2022-12-20T07:43:49;2.72;;;1.60;;
73321;SDS011;61549;37.044;22.128;2022-12-20T07:46:15;2.42;;;1.50;;
73321;SDS011;61549;37.044;22.128;2022-12-20T07:48:42;6.97;;;2.83;;
73321;SDS011;61549;37.044;22.128;2022-12-20T07:51:22;5.00;;;3.60;;
73321;SDS011;61549;37.044;22.128;2022-12-20T07:53:53;18.13;;;12.82;;
73321;SDS011;61549;37.044;22.128;2022-12-20T07:56:29;8.15;;;5.28;;
73321;SDS011;61549;37.044;22.128;2022-12-20T07:59:00;13.30;;;7.55;;
73321;SDS011;61549;37.044;22.128;2022-12-20T08:01:27;11.85;;;7.70;;
73321;SDS011;61549;37.044;22.128;2022-12-20T08:03:56;10.50;;;6.70;;
73321;SDS011;61549;37.044;22.128;2022-12-20T08:06:29;12.15;;;8.57;;
73321;SDS011;61549;37.044;22.128;2022-12-20T08:08:56;9.30;;;7.32;;
73321;SDS011;61549;37.044;22.128;2022-12-20T08:11:24;15.43;;;10.32;;
73321;SDS011;61549;37.044;22.128;2022-12-20T08:13:51;19.90;;;13.18;;
73321;SDS011;61549;37.044;22.128;2022-12-20T08:16:17;17.48;;;13.10;;
73321;SDS011;61549;37.044;22.128;2022-12-20T08:18:44;12.98;;;10.02;;
73321;SDS011;61549;37.044;22.128;2022-12-20T08:21:10;14.60;;;10.88;;
73321;SDS011;61549;37.044;22.128;2022-12-20T08:23:38;13.80;;;9.70;;
73321;SDS011;61549;37.044;22.128;2022-12-20T08:26:23;15.57;;;11.30;;
73321;SDS011;61549;37.044;22.128;2022-12-20T08:28:50;17.73;;;12.73;;
73321;SDS011;61549;37.044;22.128;2022-12-20T08:31:16;15.90;;;9.90;;
73321;SDS011;61549;37.044;22.128;2022-12-20T08:33:41;11.75;;;7.13;;
73321;SDS011;61549;37.044;22.128;2022-12-20T08:36:09;13.45;;;8.63;;
73321;SDS011;61549;37.044;22.128;2022-12-20T08:38:36;21.50;;;15.40;;
73321;SDS011;61549;37.044;22.128;2022-12-20T08:41:03;11.75;;;8.27;;
73321;SDS011;61549;37.044;22.128;2022-12-20T08:43:36;10.25;;;7.82;;
73321;SDS011;61549;37.044;22.128;2022-12-20T08:46:02;10.32;;;7.40;;
73321;SDS011;61549;37.044;22.128;2022-12-20T08:48:29;11.85;;;8.30;;
73321;SDS011;61549;37.044;22.128;2022-12-20T08:50:57;8.93;;;5.00;;
73321;SDS011;61549;37.044;22.128;2022-12-20T08:53:28;7.35;;;5.18;;
73321;SDS011;61549;37.044;22.128;2022-12-20T08:56:08;13.05;;;8.90;;
73321;SDS011;61549;37.044;22.128;2022-12-20T08:58:35;15.25;;;10.45;;
73321;SDS011;61549;37.044;22.128;2022-12-20T09:01:03;19.05;;;11.95;;
73321;SDS011;61549;37.044;22.128;2022-12-20T09:03:31;9.30;;;6.07;;
73321;SDS011;61549;37.044;22.128;2022-12-20T09:05:58;9.80;;;6.40;;
73321;SDS011;61549;37.044;22.128;2022-12-20T09:08:24;8.15;;;5.82;;
73321;SDS011;61549;37.044;22.128;2022-12-20T09:10:51;7.70;;;5.78;;
73321;SDS011;61549;37.044;22.128;2022-12-20T09:13:17;10.27;;;7.88;;
73321;SDS011;61549;37.044;22.128;2022-12-20T09:15:43;16.50;;;11.13;;
73321;SDS011;61549;37.044;22.128;2022-12-20T09:18:10;15.52;;;10.65;;
73321;SDS011;61549;37.044;22.128;2022-12-20T09:20:41;15.02;;;10.75;;
73321;SDS011;61549;37.044;22.128;2022-12-20T09:23:08;23.95;;;16.08;;
73321;SDS011;61549;37.044;22.128;2022-12-20T09:25:34;23.65;;;17.50;;
73321;SDS011;61549;37.044;22.128;2022-12-20T09:28:01;14.00;;;10.48;;
73321;SDS011;61549;37.044;22.128;2022-12-20T09:30:28;11.05;;;8.02;;
73321;SDS011;61549;37.044;22.128;2022-12-20T09:32:54;11.20;;;8.35;;
73321;SDS011;61549;37.044;22.128;2022-12-20T09:35:21;29.95;;;22.17;;
73321;SDS011;61549;37.044;22.128;2022-12-20T09:37:47;20.27;;;15.20;;
73321;SDS011;61549;37.044;22.128;2022-12-20T09:40:16;13.60;;;8.30;;
73321;SDS011;61549;37.044;22.128;2022-12-20T09:42:45;10.82;;;7.50;;
73321;SDS011;61549;37.044;22.128;2022-12-20T09:45:17;9.27;;;6.10;;
73321;SDS011;61549;37.044;22.128;2022-12-20T09:47:58;16.27;;;12.43;;
73321;SDS011;61549;37.044;22.128;2022-12-20T09:50:28;18.58;;;13.18;;
73321;SDS011;61549;37.044;22.128;2022-12-20T09:56:04;22.85;;;17.60;;
73321;SDS011;61549;37.044;22.128;2022-12-20T09:58:42;11.18;;;8.88;;
73321;SDS011;61549;37.044;22.128;2022-12-20T10:01:29;8.70;;;6.22;;
73321;SDS011;61549;37.044;22.128;2022-12-20T10:04:01;9.13;;;6.80;;
73321;SDS011;61549;37.044;22.128;2022-12-20T10:09:12;7.68;;;6.13;;
73321;SDS011;61549;37.044;22.128;2022-12-20T10:20:43;7.15;;;5.07;;
73321;SDS011;61549;37.044;22.128;2022-12-20T10:26:01;8.45;;;4.60;;
73321;SDS011;61549;37.044;22.128;2022-12-20T10:28:33;6.68;;;4.25;;
73321;SDS011;61549;37.044;22.128;2022-12-20T10:31:06;6.40;;;4.00;;
73321;SDS011;61549;37.044;22.128;2022-12-20T10:33:36;11.55;;;9.00;;
73321;SDS011;61549;37.044;22.128;2022-12-20T10:38:56;6.20;;;4.55;;
73321;SDS011;61549;37.044;22.128;2022-12-20T10:41:25;6.63;;;4.20;;
73321;SDS011;61549;37.044;22.128;2022-12-20T10:44:05;4.85;;;3.05;;
73321;SDS011;61549;37.044;22.128;2022-12-20T10:46:48;4.63;;;3.20;;
73321;SDS011;61549;37.044;22.128;2022-12-20T10:51:57;4.18;;;3.28;;
73321;SDS011;61549;37.044;22.128;2022-12-20T10:54:40;4.38;;;3.45;;
73321;SDS011;61549;37.044;22.128;2022-12-20T10:59:41;4.32;;;3.40;;
73321;SDS011;61549;37.044;22.128;2022-12-20T11:04:56;4.70;;;3.03;;
73321;SDS011;61549;37.044;22.128;2022-12-20T11:07:26;4.63;;;3.00;;
73321;SDS011;61549;37.044;22.128;2022-12-20T11:09:56;5.63;;;3.20;;
73321;SDS011;61549;37.044;22.128;2022-12-20T11:12:23;6.50;;;4.57;;
73321;SDS011;61549;37.044;22.128;2022-12-20T11:14:50;8.88;;;7.32;;
73321;SDS011;61549;37.044;22.128;2022-12-20T11:17:37;7.57;;;6.25;;
73321;SDS011;61549;37.044;22.128;2022-12-20T11:23:09;7.35;;;5.53;;
73321;SDS011;61549;37.044;22.128;2022-12-20T11:26:12;6.25;;;4.40;;
73321;SDS011;61549;37.044;22.128;2022-12-20T11:34:27;6.10;;;3.80;;
73321;SDS011;61549;37.044;22.128;2022-12-20T11:40:03;5.50;;;4.10;;
73321;SDS011;61549;37.044;22.128;2022-12-20T11:42:43;6.80;;;5.13;;
73321;SDS011;61549;37.044;22.128;2022-12-20T11:45:30;6.95;;;5.00;;
73321;SDS011;61549;37.044;22.128;2022-12-20T11:53:24;7.23;;;4.40;;
73321;SDS011;61549;37.044;22.128;2022-12-20T11:55:52;7.20;;;5.40;;
73321;SDS011;61549;37.044;22.128;2022-12-20T11:58:45;6.22;;;5.07;;
73321;SDS011;61549;37.044;22.128;2022-12-20T12:01:23;8.13;;;6.00;;
73321;SDS011;61549;37.044;22.128;2022-12-20T12:06:26;6.40;;;4.88;;
73321;SDS011;61549;37.044;22.128;2022-12-20T12:11:30;5.85;;;4.57;;
73321;SDS011;61549;37.044;22.128;2022-12-20T12:14:00;6.40;;;4.57;;
73321;SDS011;61549;37.044;22.128;2022-12-20T12:16:29;6.10;;;4.03;;
73321;SDS011;61549;37.044;22.128;2022-12-20T12:19:11;5.57;;;4.30;;
73321;SDS011;61549;37.044;22.128;2022-12-20T12:21:39;7.55;;;4.65;;
73321;SDS011;61549;37.044;22.128;2022-12-20T12:26:57;5.38;;;3.90;;
73321;SDS011;61549;37.044;22.128;2022-12-20T12:29:23;6.82;;;3.50;;
73321;SDS011;61549;37.044;22.128;2022-12-20T12:32:04;4.97;;;3.78;;
73321;SDS011;61549;37.044;22.128;2022-12-20T12:48:41;6.18;;;3.78;;
73321;SDS011;61549;37.044;22.128;2022-12-20T12:51:34;5.88;;;4.30;;
73321;SDS011;61549;37.044;22.128;2022-12-20T12:54:04;5.90;;;4.00;;
73321;SDS011;61549;37.044;22.128;2022-12-20T12:56:47;7.25;;;4.35;;
73321;SDS011;61549;37.044;22.128;2022-12-20T12:59:23;5.00;;;3.65;;
73321;SDS011;61549;37.044;22.128;2022-12-20T13:06:53;8.15;;;4.70;;
73321;SDS011;61549;37.044;22.128;2022-12-20T13:11:50;8.07;;;5.35;;
73321;SDS011;61549;37.044;22.128;2022-12-20T13:21:57;9.48;;;6.70;;
73321;SDS011;61549;37.044;22.128;2022-12-20T13:27:44;8.82;;;6.38;;
73321;SDS011;61549;37.044;22.128;2022-12-20T13:37:51;11.65;;;6.75;;
73321;SDS011;61549;37.044;22.128;2022-12-20T13:42:58;12.10;;;9.02;;
73321;SDS011;61549;37.044;22.128;2022-12-20T13:45:30;11.77;;;7.40;;
73321;SDS011;61549;37.044;22.128;2022-12-20T13:48:01;8.73;;;6.57;;
73321;SDS011;61549;37.044;22.128;2022-12-20T13:50:37;10.98;;;8.10;;
73321;SDS011;61549;37.044;22.128;2022-12-20T13:53:15;8.95;;;6.88;;
73321;SDS011;61549;37.044;22.128;2022-12-20T13:55:42;10.00;;;7.47;;
73321;SDS011;61549;37.044;22.128;2022-12-20T13:58:13;11.13;;;7.85;;
73321;SDS011;61549;37.044;22.128;2022-12-20T14:00:47;9.45;;;7.00;;
73321;SDS011;61549;37.044;22.128;2022-12-20T14:03:31;8.10;;;6.30;;
73321;SDS011;61549;37.044;22.128;2022-12-20T14:06:02;10.27;;;7.55;;
73321;SDS011;61549;37.044;22.128;2022-12-20T14:08:33;9.30;;;7.05;;
73321;SDS011;61549;37.044;22.128;2022-12-20T14:11:06;8.45;;;6.82;;
73321;SDS011;61549;37.044;22.128;2022-12-20T14:13:36;8.50;;;6.20;;
73321;SDS011;61549;37.044;22.128;2022-12-20T14:16:06;8.88;;;6.30;;
73321;SDS011;61549;37.044;22.128;2022-12-20T14:18:39;10.70;;;6.95;;
73321;SDS011;61549;37.044;22.128;2022-12-20T14:21:05;11.95;;;7.82;;
73321;SDS011;61549;37.044;22.128;2022-12-20T14:23:39;11.32;;;7.93;;
73321;SDS011;61549;37.044;22.128;2022-12-20T14:26:13;9.02;;;6.90;;
73321;SDS011;61549;37.044;22.128;2022-12-20T14:28:42;10.07;;;7.40;;
73321;SDS011;61549;37.044;22.128;2022-12-20T14:31:24;10.35;;;7.32;;
73321;SDS011;61549;37.044;22.128;2022-12-20T14:36:38;9.88;;;7.55;;
73321;SDS011;61549;37.044;22.128;2022-12-20T14:39:27;12.65;;;8.05;;
73321;SDS011;61549;37.044;22.128;2022-12-20T14:42:12;11.73;;;7.88;;
73321;SDS011;61549;37.044;22.128;2022-12-20T14:44:38;27.25;;;16.65;;
73321;SDS011;61549;37.044;22.128;2022-12-20T14:49:39;21.40;;;13.68;;
73321;SDS011;61549;37.044;22.128;2022-12-20T14:52:34;16.50;;;11.15;;
73321;SDS011;61549;37.044;22.128;2022-12-20T14:57:50;15.68;;;9.90;;
73321;SDS011;61549;37.044;22.128;2022-12-20T15:00:22;16.80;;;10.07;;
73321;SDS011;61549;37.044;22.128;2022-12-20T15:08:24;15.30;;;9.98;;
73321;SDS011;61549;37.044;22.128;2022-12-20T15:13:33;19.70;;;13.88;;
73321;SDS011;61549;37.044;22.128;2022-12-20T15:16:16;19.85;;;15.00;;
73321;SDS011;61549;37.044;22.128;2022-12-20T15:18:44;21.95;;;16.83;;
73321;SDS011;61549;37.044;22.128;2022-12-20T15:21:14;24.13;;;16.17;;
73321;SDS011;61549;37.044;22.128;2022-12-20T15:23:48;48.42;;;29.95;;
73321;SDS011;61549;37.044;22.128;2022-12-20T15:26:16;33.50;;;21.92;;
73321;SDS011;61549;37.044;22.128;2022-12-20T15:28:44;22.48;;;15.02;;
73321;SDS011;61549;37.044;22.128;2022-12-20T15:31:10;19.65;;;12.98;;
73321;SDS011;61549;37.044;22.128;2022-12-20T15:33:38;19.88;;;12.90;;
73321;SDS011;61549;37.044;22.128;2022-12-20T15:36:05;18.77;;;12.73;;
73321;SDS011;61549;37.044;22.128;2022-12-20T15:38:31;22.65;;;15.48;;
73321;SDS011;61549;37.044;22.128;2022-12-20T15:41:02;23.50;;;15.98;;
73321;SDS011;61549;37.044;22.128;2022-12-20T15:43:32;24.85;;;17.77;;
73321;SDS011;61549;37.044;22.128;2022-12-20T15:46:01;28.70;;;18.95;;
73321;SDS011;61549;37.044;22.128;2022-12-20T15:48:27;24.52;;;18.35;;
73321;SDS011;61549;37.044;22.128;2022-12-20T15:50:57;25.90;;;17.27;;
73321;SDS011;61549;37.044;22.128;2022-12-20T15:53:25;29.73;;;19.52;;
73321;SDS011;61549;37.044;22.128;2022-12-20T15:55:55;23.48;;;16.92;;
73321;SDS011;61549;37.044;22.128;2022-12-20T15:58:22;22.80;;;14.90;;
73321;SDS011;61549;37.044;22.128;2022-12-20T16:00:49;19.17;;;14.05;;
73321;SDS011;61549;37.044;22.128;2022-12-20T16:03:22;19.02;;;12.85;;
73321;SDS011;61549;37.044;22.128;2022-12-20T16:05:55;17.65;;;11.50;;
73321;SDS011;61549;37.044;22.128;2022-12-20T16:08:21;20.05;;;13.07;;
73321;SDS011;61549;37.044;22.128;2022-12-20T16:10:48;19.33;;;12.02;;
73321;SDS011;61549;37.044;22.128;2022-12-20T16:13:19;15.00;;;10.20;;
73321;SDS011;61549;37.044;22.128;2022-12-20T16:15:47;16.00;;;10.30;;
73321;SDS011;61549;37.044;22.128;2022-12-20T16:18:24;14.45;;;10.27;;
73321;SDS011;61549;37.044;22.128;2022-12-20T16:20:50;10.63;;;7.13;;
73321;SDS011;61549;37.044;22.128;2022-12-20T16:23:17;13.82;;;8.93;;
73321;SDS011;61549;37.044;22.128;2022-12-20T16:25:46;14.07;;;11.15;;
73321;SDS011;61549;37.044;22.128;2022-12-20T16:28:13;14.88;;;10.77;;
73321;SDS011;61549;37.044;22.128;2022-12-20T16:30:41;11.43;;;8.27;;
73321;SDS011;61549;37.044;22.128;2022-12-20T16:33:25;12.85;;;8.75;;
73321;SDS011;61549;37.044;22.128;2022-12-20T16:35:51;12.23;;;9.07;;
73321;SDS011;61549;37.044;22.128;2022-12-20T16:38:17;14.55;;;10.25;;
73321;SDS011;61549;37.044;22.128;2022-12-20T16:40:43;12.35;;;8.18;;
73321;SDS011;61549;37.044;22.128;2022-12-20T16:43:12;11.20;;;8.32;;
73321;SDS011;61549;37.044;22.128;2022-12-20T16:45:40;12.98;;;9.05;;
73321;SDS011;61549;37.044;22.128;2022-12-20T16:48:06;14.07;;;8.32;;
73321;SDS011;61549;37.044;22.128;2022-12-20T16:50:32;12.32;;;8.55;;
73321;SDS011;61549;37.044;22.128;2022-12-20T16:52:58;14.73;;;9.05;;